Time;durP1;ratioP1;P1;durP2;ratioP2;P2;SDS_P1;SDS_P2;PMS_P1;PMS_P2;Temp;Humidity;BMP_temperature;BMP_pressure;BME280_temperature;BME280_humidity;BME280_pressure;Samples;Min_cycle;Max_cycle;Signal;HPM_P1;HPM_P2
2023/03/03 07:20:38;;;;;;;;;86.67;64.00;;;;;2.22;67.83;102020.19;5202421;23;46637;-73
2023/03/03 07:23:28;;;;;;;;;93.00;67.67;;;;;2.24;67.73;102009.84;4945048;28;45506;-72
2023/03/03 07:25:53;;;;;;;;;88.33;68.00;;;;;2.18;69.79;101998.97;4921298;28;45600;-73
2023/03/03 07:28:31;;;;;;;;;87.00;64.33;;;;;2.28;67.73;102000.59;4941607;28;45219;-73
2023/03/03 07:30:57;;;;;;;;;95.33;68.00;;;;;2.26;68.43;101986.50;4940301;28;45458;-74
2023/03/03 07:33:27;;;;;;;;;89.67;67.00;;;;;2.46;67.33;102018.56;4941549;28;45321;-74
2023/03/03 07:35:55;;;;;;;;;81.33;65.33;;;;;2.56;69.07;102029.69;4940495;28;45411;-73
2023/03/03 07:38:41;;;;;;;;;86.67;68.33;;;;;2.67;69.60;102024.50;4941894;28;45444;-74
2023/03/03 07:41:16;;;;;;;;;89.67;66.00;;;;;2.78;68.54;102032.25;4939648;28;45470;-74
2023/03/03 07:43:53;;;;;;;;;81.67;64.33;;;;;2.50;68.58;101969.22;4939199;28;46017;-74
2023/03/03 07:46:33;;;;;;;;;85.67;62.67;;;;;2.92;66.47;102036.78;4941210;28;45598;-73
2023/03/03 07:48:59;;;;;;;;;90.00;66.67;;;;;2.81;68.44;102020.31;4932070;28;45577;-74
2023/03/03 07:51:38;;;;;;;;;88.67;64.67;;;;;2.93;67.92;102030.78;4941246;28;45234;-74
2023/03/03 07:54:37;;;;;;;;;88.00;64.67;;;;;3.02;66.82;102033.16;4940344;28;45481;-74
2023/03/03 07:57:19;;;;;;;;;90.67;67.00;;;;;3.14;66.61;102044.53;4935757;28;45475;-75
2023/03/03 07:59:48;;;;;;;;;83.00;64.67;;;;;3.21;67.13;102048.50;4940743;28;45322;-73
2023/03/03 08:02:39;;;;;;;;;95.00;67.33;;;;;3.28;65.92;102043.84;4940757;28;45417;-73
2023/03/03 08:05:35;;;;;;;;;81.67;63.00;;;;;3.30;66.81;102051.78;4927239;28;45544;-73
2023/03/03 08:08:19;;;;;;;;;82.67;65.00;;;;;3.32;67.01;102052.81;4927732;28;45372;-72
2023/03/03 08:10:53;;;;;;;;;85.00;64.33;;;;;3.05;66.68;102004.66;4922290;28;45424;-72
2023/03/03 08:13:39;;;;;;;;;88.00;65.33;;;;;3.34;67.26;102064.28;4939846;28;45810;-72
2023/03/03 08:16:10;;;;;;;;;84.67;63.67;;;;;3.36;66.01;102061.00;4940126;28;45475;-72
2023/03/03 08:18:37;;;;;;;;;80.33;60.33;;;;;3.38;67.93;102068.03;4940064;28;45359;-72
2023/03/03 08:21:13;;;;;;;;;90.33;67.00;;;;;3.45;66.93;102076.44;4940026;28;45614;-72
2023/03/03 08:23:39;;;;;;;;;89.00;66.00;;;;;3.43;67.17;102046.66;4940263;28;45450;-71
2023/03/03 08:26:04;;;;;;;;;87.67;62.67;;;;;3.47;67.08;102045.16;4944446;28;45332;-71
2023/03/03 08:28:30;;;;;;;;;84.00;63.33;;;;;3.68;66.19;102069.38;4940430;28;45304;-72
2023/03/03 08:30:55;;;;;;;;;97.33;69.33;;;;;3.77;67.11;102072.63;4940744;28;45316;-74
2023/03/03 08:33:20;;;;;;;;;82.00;60.33;;;;;3.87;67.25;102075.13;4922947;28;45837;-74
2023/03/03 08:35:47;;;;;;;;;84.67;64.33;;;;;3.72;66.71;102040.91;4939137;28;46231;-74
2023/03/03 08:38:14;;;;;;;;;86.67;65.33;;;;;4.03;66.29;102078.03;4939588;28;45292;-74
2023/03/03 08:40:40;;;;;;;;;83.00;65.00;;;;;4.10;66.40;102073.25;4939909;28;45293;-74
2023/03/03 08:43:06;;;;;;;;;80.67;63.00;;;;;4.16;65.41;102073.66;4923362;28;46374;-75
2023/03/03 08:45:32;;;;;;;;;80.00;59.00;;;;;4.06;65.38;102047.63;4939951;28;45158;-75
2023/03/03 08:47:58;;;;;;;;;80.33;60.00;;;;;4.00;65.57;102038.56;4933451;28;45330;-79
2023/03/03 08:50:24;;;;;;;;;81.67;63.00;;;;;4.12;65.89;102064.69;4939466;28;45253;-76
2023/03/03 08:52:50;;;;;;;;;84.67;64.00;;;;;4.13;65.29;102078.69;4940413;28;45526;-75
2023/03/03 08:55:16;;;;;;;;;71.00;59.67;;;;;4.07;64.91;102059.94;4939637;28;45335;-74
2023/03/03 08:57:42;;;;;;;;;84.67;65.00;;;;;3.98;65.17;102047.13;4939803;28;45268;-75
2023/03/03 09:00:10;;;;;;;;;79.67;61.00;;;;;4.23;64.65;102086.41;4939911;28;45280;-74
2023/03/03 09:02:36;;;;;;;;;80.00;58.00;;;;;4.05;65.02;102044.13;4940329;28;45643;-75
2023/03/03 09:05:02;;;;;;;;;73.00;56.67;;;;;4.26;64.87;102090.13;4939425;28;46089;-74
2023/03/03 09:07:28;;;;;;;;;84.00;63.67;;;;;3.68;65.06;101983.09;4940445;28;45755;-72
2023/03/03 09:09:53;;;;;;;;;82.33;62.67;;;;;4.31;65.22;102089.53;4921824;28;45412;-74
2023/03/03 09:12:27;;;;;;;;;80.00;59.00;;;;;4.34;64.71;102088.06;4940301;28;45260;-74
2023/03/03 09:14:57;;;;;;;;;77.67;59.00;;;;;3.97;64.56;102024.34;4938643;28;45512;-74
2023/03/03 09:17:33;;;;;;;;;84.00;62.67;;;;;4.20;64.00;102052.13;4939696;28;45245;-74
2023/03/03 09:20:02;;;;;;;;;83.00;59.00;;;;;4.31;64.34;102079.97;4932211;28;45398;-74
2023/03/03 09:22:27;;;;;;;;;77.67;61.00;;;;;4.44;63.75;102093.13;4938755;28;45323;-74
2023/03/03 09:24:56;;;;;;;;;88.67;63.33;;;;;4.45;63.90;102101.88;4923090;28;46793;-74
2023/03/03 09:27:28;;;;;;;;;77.33;59.00;;;;;4.35;63.91;102081.09;4925564;28;45418;-74
2023/03/03 09:29:53;;;;;;;;;79.67;60.00;;;;;4.53;64.34;102103.31;4942524;28;45358;-73
2023/03/03 09:32:18;;;;;;;;;76.67;59.67;;;;;4.59;63.97;102094.97;4942964;28;45718;-74
2023/03/03 09:34:45;;;;;;;;;82.33;61.00;;;;;4.47;63.64;102050.53;4942035;28;46226;-73
2023/03/03 09:37:20;;;;;;;;;74.67;57.00;;;;;4.93;63.87;102098.22;4925145;28;44825;-74
2023/03/03 09:39:53;;;;;;;;;72.33;53.33;;;;;4.89;62.66;102072.59;4942250;28;45304;-74
2023/03/03 09:42:44;;;;;;;;;72.67;56.67;;;;;5.01;63.18;102075.13;4942838;28;45450;-74
2023/03/03 09:45:40;;;;;;;;;76.00;57.33;;;;;5.35;62.54;102100.19;4942094;28;45564;-73
2023/03/03 09:48:20;;;;;;;;;72.33;55.33;;;;;5.46;62.17;102095.66;4921243;28;45246;-74
2023/03/03 09:51:05;;;;;;;;;76.00;55.33;;;;;5.59;61.48;102098.25;4942124;28;45324;-74
2023/03/03 09:54:04;;;;;;;;;71.67;55.00;;;;;5.66;61.85;102086.47;4924840;28;45565;-74
2023/03/03 09:56:43;;;;;;;;;64.33;49.67;;;;;5.66;61.09;102078.59;4940985;28;45253;-73
2023/03/03 09:59:25;;;;;;;;;71.67;53.00;;;;;5.98;60.12;102095.50;4922843;28;45349;-74
2023/03/03 10:02:23;;;;;;;;;72.00;54.33;;;;;6.04;61.34;102065.31;4926070;28;45368;-74
2023/03/03 10:05:26;;;;;;;;;63.00;53.00;;;;;6.44;60.00;102091.44;4942624;28;45226;-74
2023/03/03 10:08:01;;;;;;;;;68.00;52.75;;;;;6.69;59.15;102093.84;4942850;28;46449;-74
2023/03/03 10:10:39;;;;;;;;;64.50;48.75;;;;;6.56;59.04;102038.75;4942363;28;45309;-75
2023/03/03 10:13:29;;;;;;;;;64.00;51.75;;;;;6.63;59.16;102037.38;4936532;28;45442;-75
2023/03/03 10:16:19;;;;;;;;;59.25;47.25;;;;;7.14;59.25;102107.00;4924203;28;45258;-75
2023/03/03 10:18:55;;;;;;;;;64.25;48.00;;;;;7.20;57.30;102090.66;4941895;28;45323;-75
2023/03/03 10:21:24;;;;;;;;;68.25;50.75;;;;;7.41;57.04;102084.03;4942246;28;45553;-74
2023/03/03 10:24:21;;;;;;;;;62.00;50.00;;;;;7.80;56.61;102108.19;4924926;28;45265;-75
2023/03/03 10:27:18;;;;;;;;;62.50;48.00;;;;;7.97;56.31;102104.78;4917755;28;45634;-76
2023/03/03 10:30:12;;;;;;;;;62.00;48.75;;;;;8.19;56.71;102098.06;4922595;28;46998;-74
2023/03/03 10:33:02;;;;;;;;;58.75;44.75;;;;;8.58;55.69;102116.91;4942344;28;45525;-75
2023/03/03 10:35:42;;;;;;;;;59.50;44.00;;;;;8.97;54.63;102110.19;4938353;28;45446;-77
2023/03/03 10:38:38;;;;;;;;;58.25;45.50;;;;;9.35;55.47;102105.94;4921682;28;46204;-77
2023/03/03 10:41:41;;;;;;;;;59.00;45.25;;;;;9.65;54.25;102119.75;4926272;28;46906;-76
2023/03/03 10:44:16;;;;;;;;;54.50;43.50;;;;;9.99;51.86;102116.13;4941787;28;45557;-77
2023/03/03 10:47:21;;;;;;;;;57.00;44.50;;;;;10.23;55.03;102114.63;4932348;28;44810;-77
2023/03/03 10:50:19;;;;;;;;;56.25;44.25;;;;;10.47;53.37;102112.28;4935265;28;45628;-77
2023/03/03 10:52:51;;;;;;;;;50.00;37.75;;;;;10.58;48.64;102111.84;4911515;28;46230;-76
2023/03/03 10:55:27;;;;;;;;;59.50;44.50;;;;;10.81;48.86;102115.50;4941678;28;45221;-75
2023/03/03 10:58:28;;;;;;;;;54.00;41.00;;;;;10.97;47.79;102110.06;4942240;28;45633;-78
2023/03/03 11:01:11;;;;;;;;;54.00;43.75;;;;;11.00;48.78;102096.06;4941714;28;45268;-78
2023/03/03 11:04:15;;;;;;;;;56.50;42.00;;;;;11.26;51.53;102108.69;4923213;28;47155;-77
2023/03/03 11:07:08;;;;;;;;;55.75;43.50;;;;;11.48;50.68;102107.81;4939483;28;45326;-75
2023/03/03 11:09:43;;;;;;;;;55.50;42.25;;;;;11.54;50.46;102105.44;4941766;28;45515;-74
2023/03/03 11:12:08;;;;;;;;;52.00;40.25;;;;;11.71;45.77;102107.88;4941839;28;45277;-76
2023/03/03 11:14:36;;;;;;;;;52.75;41.75;;;;;11.93;47.90;102110.59;4938925;28;47290;-76
2023/03/03 11:17:16;;;;;;;;;54.25;44.00;;;;;11.82;48.43;102067.75;4924431;28;45308;-76
2023/03/03 11:19:54;;;;;;;;;50.00;40.50;;;;;12.18;49.83;102101.81;4942941;28;45676;-76
2023/03/03 11:22:53;;;;;;;;;53.50;42.50;;;;;12.21;47.67;102079.84;4924238;28;45914;-77
2023/03/03 11:25:35;;;;;;;;;52.00;42.50;;;;;12.42;46.04;102071.81;4928792;28;45221;-76
2023/03/03 11:28:35;;;;;;;;;48.75;37.75;;;;;12.80;43.99;102091.78;4938229;28;45447;-77
2023/03/03 11:31:18;;;;;;;;;50.75;38.75;;;;;13.07;45.71;102093.59;4936385;28;45454;-76
2023/03/03 11:34:04;;;;;;;;;51.75;42.00;;;;;13.24;44.05;102091.53;4940787;28;45293;-76
2023/03/03 11:36:35;;;;;;;;;51.25;39.75;;;;;13.06;45.92;102074.13;4923180;28;45094;-77
2023/03/03 11:39:08;;;;;;;;;50.75;42.00;;;;;13.32;46.72;102087.41;4940811;28;45367;-77
2023/03/03 11:41:59;;;;;;;;;51.75;40.00;;;;;13.10;42.54;102025.56;4941944;28;45502;-75
2023/03/03 11:44:50;;;;;;;;;48.75;37.50;;;;;13.71;44.63;102081.59;4940325;28;45342;-76
2023/03/03 11:47:17;;;;;;;;;46.25;35.25;;;;;13.88;40.70;102078.59;4937889;28;45335;-79
2023/03/03 11:50:02;;;;;;;;;42.75;35.00;;;;;14.03;45.50;102071.97;4941639;28;45498;-75
2023/03/03 11:52:43;;;;;;;;;41.25;34.00;;;;;14.05;41.89;102064.94;4941530;28;45153;-74
2023/03/03 11:55:19;;;;;;;;;45.00;35.50;;;;;14.07;42.01;102045.53;4934730;28;45277;-74
2023/03/03 11:58:07;;;;;;;;;38.75;33.25;;;;;14.20;44.60;102043.22;4940663;28;45328;-75
2023/03/03 12:00:32;;;;;;;;;51.75;38.25;;;;;14.35;37.95;102069.38;4939995;28;45569;-74
2023/03/03 12:03:44;;;;;;;;;26.00;21.25;;;;;14.42;44.19;102071.34;4920209;28;45294;-74
2023/03/03 12:06:33;;;;;;;;;43.00;35.00;;;;;14.50;40.95;102064.50;4852877;29;45683;-76
2023/03/03 12:09:17;;;;;;;;;44.00;34.75;;;;;14.54;40.17;102062.00;4856382;29;46469;-76
2023/03/03 12:12:07;;;;;;;;;36.50;31.25;;;;;14.60;41.85;102053.28;4922904;28;45493;-75
2023/03/03 12:15:00;;;;;;;;;39.50;34.75;;;;;14.58;41.12;102054.09;4886230;28;45506;-75
2023/03/03 12:17:56;;;;;;;;;44.00;35.75;;;;;14.53;41.08;102053.97;4935953;28;45226;-75
2023/03/03 12:20:29;;;;;;;;;37.25;32.00;;;;;14.47;42.72;102037.81;4915877;28;47090;-74
2023/03/03 12:23:13;;;;;;;;;30.00;26.50;;;;;14.54;39.63;102056.69;4940295;28;45287;-75
2023/03/03 12:25:41;;;;;;;;;31.00;26.50;;;;;14.57;38.02;102041.69;4938177;28;44793;-76
2023/03/03 12:28:21;;;;;;;;;39.75;34.25;;;;;14.65;39.34;102046.34;5502763;23;46135;-69
2023/03/03 12:31:13;;;;;;;;;34.75;30.75;;;;;14.84;41.45;102044.16;4921016;28;45771;-70
2023/03/03 12:33:55;;;;;;;;;34.50;31.50;;;;;14.88;41.47;102030.09;4936892;28;45417;-70
2023/03/03 12:36:45;;;;;;;;;30.75;28.50;;;;;14.92;41.41;102037.28;4914254;28;45389;-70
2023/03/03 12:39:25;;;;;;;;;29.50;27.75;;;;;14.93;40.33;102041.78;4934009;28;45379;-69
2023/03/03 12:42:00;;;;;;;;;31.25;24.50;;;;;14.97;40.57;102033.88;4933103;28;46550;-69
2023/03/03 12:44:51;;;;;;;;;31.00;29.50;;;;;15.07;40.29;102043.03;4917409;28;45441;-70
2023/03/03 12:47:38;;;;;;;;;30.25;28.50;;;;;15.06;40.30;102048.31;4934213;28;46161;-70
2023/03/03 12:50:26;;;;;;;;;36.75;30.25;;;;;15.02;40.44;102038.44;4935537;28;45548;-69
2023/03/03 12:53:30;;;;;;;;;36.75;27.50;;;;;14.92;38.83;102032.84;4937760;28;45461;-69
2023/03/03 12:56:10;;;;;;;;;24.25;17.75;;;;;14.98;38.85;102041.03;4878451;29;45410;-69
2023/03/03 12:58:46;;;;;;;;;31.75;29.75;;;;;14.90;38.56;102042.59;4877582;29;45318;-70
2023/03/03 13:01:27;;;;;;;;;28.00;27.00;;;;;14.89;36.49;102031.88;4905986;28;45493;-69
2023/03/03 13:04:15;;;;;;;;;32.00;28.00;;;;;14.88;38.19;102036.31;4932073;28;47262;-69
2023/03/03 13:06:51;;;;;;;;;30.50;26.00;;;;;14.80;37.34;102048.50;4915877;28;45248;-70
2023/03/03 13:09:35;;;;;;;;;28.00;26.25;;;;;14.75;39.51;102029.75;4921861;28;45573;-70
2023/03/03 13:12:06;;;;;;;;;28.00;26.75;;;;;14.63;35.82;102033.84;4933490;28;45746;-71
2023/03/03 13:14:35;;;;;;;;;29.00;25.50;;;;;14.50;37.02;102030.78;4933098;28;47021;-69
2023/03/03 13:17:16;;;;;;;;;32.00;29.75;;;;;14.28;37.92;102016.03;4932644;28;45249;-70
2023/03/03 13:20:14;;;;;;;;;29.50;26.25;;;;;13.98;39.65;101999.16;4932608;28;45432;-69
2023/03/03 13:22:49;;;;;;;;;32.00;29.75;;;;;13.92;39.00;102021.16;4927459;28;45818;-70
2023/03/03 13:25:27;;;;;;;;;30.50;28.00;;;;;13.64;39.56;102019.41;4936931;28;45680;-70
2023/03/03 13:28:05;;;;;;;;;32.25;28.25;;;;;13.35;38.85;101995.44;4927337;28;45370;-69
2023/03/03 13:30:37;;;;;;;;;27.75;25.50;;;;;13.27;38.78;102001.38;4932264;28;45364;-69
2023/03/03 13:33:34;;;;;;;;;32.25;25.50;;;;;13.13;39.99;102011.50;4909698;28;46049;-70
2023/03/03 13:36:06;;;;;;;;;30.00;24.75;;;;;12.96;39.59;102011.81;4937309;28;45600;-70
2023/03/03 13:38:58;;;;;;;;;15.00;15.00;;;;;12.76;40.19;101996.97;4943109;28;45318;-72
2023/03/03 13:41:41;;;;;;;;;25.25;23.50;;;;;12.61;40.54;101996.47;4928531;28;45660;-70
2023/03/03 13:44:19;;;;;;;;;23.75;20.25;;;;;12.60;39.61;102013.22;4937403;28;45675;-70
2023/03/03 13:47:07;;;;;;;;;29.75;25.00;;;;;12.43;39.27;102018.81;4934113;28;48393;-69
2023/03/03 13:50:03;;;;;;;;;26.25;21.75;;;;;12.22;40.50;101992.44;4935587;28;45324;-71
2023/03/03 13:52:34;;;;;;;;;22.00;21.50;;;;;12.16;40.30;101993.97;4920607;28;45537;-70
2023/03/03 13:55:19;;;;;;;;;30.25;26.50;;;;;12.16;40.66;102009.88;4933058;28;45455;-70
2023/03/03 13:58:12;;;;;;;;;25.00;23.75;;;;;12.13;39.23;102013.31;4929003;28;45320;-69
2023/03/03 14:00:37;;;;;;;;;33.50;27.25;;;;;12.14;41.04;102017.75;4927574;28;45401;-70
2023/03/03 14:03:42;;;;;;;;;37.75;29.50;;;;;12.15;40.86;102016.88;4931129;28;45358;-69
2023/03/03 14:06:14;;;;;;;;;32.00;28.75;;;;;12.19;40.81;102009.97;4909117;28;46709;-69
2023/03/03 14:08:43;;;;;;;;;32.50;27.75;;;;;12.20;40.82;102015.31;4931832;28;45253;-69
2023/03/03 14:11:31;;;;;;;;;27.50;23.25;;;;;12.26;40.86;102006.69;4921033;28;45451;-69
2023/03/03 14:14:06;;;;;;;;;30.25;26.25;;;;;12.29;40.79;102006.78;4922315;28;45455;-70
2023/03/03 14:16:47;;;;;;;;;31.75;27.00;;;;;12.31;40.70;102021.91;4937016;28;45533;-69
2023/03/03 14:19:19;;;;;;;;;30.75;27.25;;;;;12.27;41.13;102020.00;4920753;28;47136;-69
2023/03/03 14:21:50;;;;;;;;;25.25;23.00;;;;;12.23;40.18;102007.47;4930803;28;45520;-69
2023/03/03 14:24:19;;;;;;;;;28.00;25.00;;;;;12.27;40.33;101992.59;4937321;28;45478;-70
2023/03/03 14:26:52;;;;;;;;;26.50;23.50;;;;;12.39;40.90;101995.69;4931703;28;45356;-69
2023/03/03 14:29:26;;;;;;;;;34.25;31.00;;;;;12.52;40.65;102008.56;4934203;28;46782;-69
2023/03/03 14:31:52;;;;;;;;;26.00;22.50;;;;;12.48;40.89;101995.13;4937389;28;45347;-69
2023/03/03 14:34:39;;;;;;;;;32.75;26.75;;;;;12.54;40.67;102001.53;4940584;28;45355;-70
2023/03/03 14:37:26;;;;;;;;;35.25;30.75;;;;;12.68;40.53;102006.44;4932761;28;45393;-70
2023/03/03 14:40:17;;;;;;;;;37.25;31.75;;;;;12.77;40.92;102009.38;4936880;28;46610;-69
2023/03/03 14:42:50;;;;;;;;;36.00;31.25;;;;;12.79;40.88;101986.47;4935440;28;45434;-69
2023/03/03 14:45:32;;;;;;;;;37.25;32.25;;;;;12.69;40.36;101929.56;4934624;28;45303;-69
2023/03/03 14:47:59;;;;;;;;;35.00;32.50;;;;;13.21;40.64;101997.63;4938072;28;45374;-69
2023/03/03 14:50:37;;;;;;;;;38.00;29.50;;;;;13.26;40.21;101981.00;4941709;28;45405;-70
2023/03/03 14:53:06;;;;;;;;;30.50;27.50;;;;;13.47;40.29;101986.06;4939569;28;45365;-69
2023/03/03 14:55:37;;;;;;;;;30.75;27.75;;;;;13.42;39.47;101992.16;4937699;28;45372;-70
2023/03/03 14:58:07;;;;;;;;;32.00;28.25;;;;;13.31;39.69;101966.13;4940780;28;45594;-70
2023/03/03 15:00:33;;;;;;;;;38.50;32.00;;;;;13.53;39.99;101986.28;4934830;28;48056;-69
2023/03/03 15:03:14;;;;;;;;;34.00;31.00;;;;;13.49;40.31;101982.63;4922632;28;45515;-69
2023/03/03 15:05:48;;;;;;;;;39.00;32.00;;;;;13.46;40.13;101995.81;4941630;28;45521;-69
2023/03/03 15:08:14;;;;;;;;;37.00;31.75;;;;;13.37;39.97;101967.19;4922984;28;45615;-70
2023/03/03 15:10:43;;;;;;;;;33.00;28.50;;;;;13.38;40.27;101973.41;4941395;28;45375;-69
2023/03/03 15:13:20;;;;;;;;;37.00;33.75;;;;;13.50;40.90;101991.47;4935621;28;45542;-69
2023/03/03 15:16:00;;;;;;;;;34.00;31.25;;;;;13.48;40.46;101983.47;4938150;28;45372;-69
2023/03/03 15:18:27;;;;;;;;;33.50;31.50;;;;;13.43;40.31;101985.97;4939639;28;45448;-68
2023/03/03 15:21:08;;;;;;;;;30.00;26.25;;;;;13.44;40.29;101989.53;4936846;28;45330;-70
2023/03/03 15:24:03;;;;;;;;;34.25;29.75;;;;;13.41;40.18;101987.72;4931241;28;45414;-69
2023/03/03 15:26:50;;;;;;;;;32.00;25.00;;;;;13.26;40.35;101986.31;4923254;28;45223;-69
2023/03/03 15:30:00;;;;;;;;;31.00;28.25;;;;;13.15;40.95;101983.25;4932020;28;45253;-69
2023/03/03 15:32:32;;;;;;;;;35.25;32.25;;;;;13.09;39.92;101973.34;4930593;28;45426;-69
2023/03/03 15:35:05;;;;;;;;;38.25;30.25;;;;;13.08;40.42;101989.19;4921114;28;45435;-69
2023/03/03 15:38:06;;;;;;;;;34.75;32.50;;;;;13.11;40.76;101998.19;4940619;28;45333;-69
2023/03/03 15:40:48;;;;;;;;;38.50;29.00;;;;;12.90;40.86;101989.50;4884861;28;45324;-69
2023/03/03 15:43:32;;;;;;;;;33.00;28.25;;;;;12.86;40.89;102003.53;4924112;28;46635;-68
2023/03/03 15:46:18;;;;;;;;;23.25;21.50;;;;;12.70;40.15;102015.34;4936918;28;45343;-68
2023/03/03 15:48:57;;;;;;;;;29.50;26.00;;;;;12.58;40.83;102013.19;4940409;28;45370;-69
2023/03/03 15:51:30;;;;;;;;;30.25;28.75;;;;;12.45;41.08;102006.50;4917770;28;46250;-69
2023/03/03 15:54:16;;;;;;;;;28.25;27.00;;;;;12.25;40.70;102013.75;4939191;28;45414;-69
2023/03/03 15:56:57;;;;;;;;;33.50;30.75;;;;;12.01;41.43;101992.53;4931014;28;45245;-68
2023/03/03 15:59:41;;;;;;;;;33.00;26.00;;;;;12.04;41.32;102015.59;4937637;28;45469;-68
2023/03/03 16:02:42;;;;;;;;;29.75;25.25;;;;;11.82;41.29;102009.44;4929897;28;45352;-68
2023/03/03 16:05:25;;;;;;;;;37.00;27.75;;;;;11.67;41.74;102014.13;4920028;28;45460;-69
2023/03/03 16:08:17;;;;;;;;;35.25;31.00;;;;;11.34;41.59;101990.78;4910717;28;45477;-68
2023/03/03 16:10:58;;;;;;;;;36.50;32.25;;;;;11.33;42.13;102014.53;4934119;28;45364;-69
2023/03/03 16:13:26;;;;;;;;;35.00;30.75;;;;;11.18;42.37;102020.13;4911495;28;46331;-68
2023/03/03 16:16:12;;;;;;;;;35.75;33.25;;;;;11.03;42.10;102028.28;4929521;28;46408;-68
2023/03/03 16:19:02;;;;;;;;;34.75;32.00;;;;;10.91;43.10;102015.47;4931440;28;45491;-69
2023/03/03 16:21:48;;;;;;;;;35.75;31.50;;;;;10.78;42.63;102026.34;4926535;28;45332;-70
2023/03/03 16:24:39;;;;;;;;;39.00;32.25;;;;;10.58;43.14;102020.19;4932409;28;45443;-68
2023/03/03 16:27:09;;;;;;;;;35.50;30.25;;;;;10.40;42.99;102008.81;4932582;28;46181;-69
2023/03/03 16:29:46;;;;;;;;;42.50;33.75;;;;;10.45;42.79;102036.38;4929976;28;45499;-69
2023/03/03 16:32:21;;;;;;;;;32.75;28.50;;;;;10.37;42.87;102041.31;4920976;28;45360;-70
2023/03/03 16:34:55;;;;;;;;;29.75;25.50;;;;;10.24;43.98;102039.81;4937912;28;45282;-71
2023/03/03 16:37:41;;;;;;;;;38.00;30.25;;;;;10.13;44.07;102048.06;4940456;28;45685;-70
2023/03/03 16:40:44;;;;;;;;;38.75;30.75;;;;;10.00;43.48;102057.19;4938002;28;46079;-69
2023/03/03 16:43:51;;;;;;;;;31.25;25.00;;;;;9.85;43.76;102058.25;4930262;28;45399;-70
2023/03/03 16:46:41;;;;;;;;;37.25;33.25;;;;;9.68;44.08;102066.22;4933235;28;45364;-71
2023/03/03 16:49:23;;;;;;;;;35.25;31.75;;;;;9.48;45.03;102065.25;4939430;28;45396;-68
2023/03/03 16:51:58;;;;;;;;;47.75;35.75;;;;;9.22;45.18;102027.91;4940407;28;45440;-68
2023/03/03 16:54:55;;;;;;;;;31.75;30.00;;;;;9.34;45.35;102078.66;4917042;28;45440;-72
2023/03/03 16:57:30;;;;;;;;;35.25;32.50;;;;;9.22;45.58;102091.25;4930792;28;45233;-70
2023/03/03 17:00:20;;;;;;;;;38.75;34.75;;;;;8.82;45.78;102061.91;4938997;28;46385;-71
2023/03/03 17:02:51;;;;;;;;;36.00;31.00;;;;;8.81;46.32;102090.00;4921416;28;45533;-70
2023/03/03 17:05:34;;;;;;;;;36.50;32.00;;;;;8.63;46.48;102084.69;4935024;28;45367;-70
2023/03/03 17:08:21;;;;;;;;;37.25;30.75;;;;;8.53;46.73;102095.56;4934361;28;45366;-70
2023/03/03 17:10:47;;;;;;;;;43.50;32.75;;;;;8.39;46.32;102086.91;4931587;28;45731;-71
2023/03/03 17:13:31;;;;;;;;;35.00;31.50;;;;;8.23;47.16;102092.13;4914283;28;45372;-71
2023/03/03 17:16:28;;;;;;;;;43.50;35.50;;;;;8.14;48.06;102096.91;4912211;28;45467;-70
2023/03/03 17:19:31;;;;;;;;;40.50;34.00;;;;;8.03;47.68;102097.22;4905426;28;46055;-70
2023/03/03 17:22:25;;;;;;;;;36.75;32.75;;;;;7.96;47.55;102102.06;4935723;28;46568;-70
2023/03/03 17:25:01;;;;;;;;;30.25;28.00;;;;;7.87;47.48;102105.09;4937760;28;45478;-72
2023/03/03 17:27:47;;;;;;;;;47.00;36.75;;;;;7.74;48.18;102118.38;4936192;28;44662;-70
2023/03/03 17:30:16;;;;;;;;;33.50;28.75;;;;;7.63;48.73;102130.91;4939010;28;45549;-69
2023/03/03 17:32:57;;;;;;;;;50.50;39.00;;;;;7.43;48.61;102110.47;4921584;28;45759;-69
2023/03/03 17:35:46;;;;;;;;;44.00;35.25;;;;;7.35;49.40;102129.31;4930505;28;45205;-69
2023/03/03 17:38:48;;;;;;;;;55.25;42.25;;;;;7.30;49.16;102140.38;4927189;28;45553;-70
2023/03/03 17:41:31;;;;;;;;;29.50;29.50;;;;;7.00;50.01;102119.34;4931691;28;45714;-70
2023/03/03 17:44:16;;;;;;;;;41.50;34.25;;;;;6.83;49.71;102122.66;4933002;28;45450;-70
2023/03/03 17:46:53;;;;;;;;;38.50;34.25;;;;;6.88;50.63;102143.16;4929730;28;45245;-70
2023/03/03 17:49:34;;;;;;;;;42.75;36.50;;;;;6.88;51.05;102160.66;4935710;28;45403;-70
2023/03/03 17:52:30;;;;;;;;;40.50;34.25;;;;;6.78;51.21;102167.06;4923178;28;45372;-71
2023/03/03 17:55:42;;;;;;;;;43.75;36.00;;;;;6.69;52.39;102172.69;4934515;28;45367;-70
2023/03/03 17:58:28;;;;;;;;;38.25;31.25;;;;;6.61;52.61;102171.28;4898240;28;46742;-71
2023/03/03 18:01:12;;;;;;;;;39.75;34.25;;;;;6.55;51.36;102168.25;4934965;28;45414;-71
2023/03/03 18:04:02;;;;;;;;;46.00;35.75;;;;;6.48;51.68;102177.47;4921095;28;47158;-70
2023/03/03 18:07:01;;;;;;;;;42.25;36.25;;;;;6.44;52.26;102177.19;4926763;28;46455;-70
2023/03/03 18:09:51;;;;;;;;;41.00;34.75;;;;;6.41;52.97;102185.81;4939989;28;45312;-71
2023/03/03 18:12:48;;;;;;;;;41.75;33.00;;;;;6.39;51.27;102184.78;4913499;28;45617;-70
2023/03/03 18:15:26;;;;;;;;;41.50;33.25;;;;;6.34;52.29;102187.94;4933069;28;46327;-71
2023/03/03 18:18:03;;;;;;;;;41.25;34.50;;;;;6.14;52.54;102178.78;4926802;28;46285;-71
2023/03/03 18:20:47;;;;;;;;;37.25;33.50;;;;;6.23;54.08;102193.41;4941150;28;45418;-71
2023/03/03 18:23:46;;;;;;;;;33.50;31.75;;;;;6.11;53.01;102190.00;4931084;28;45301;-71
2023/03/03 18:26:37;;;;;;;;;31.25;29.75;;;;;6.13;52.65;102200.56;4937026;28;45293;-71
2023/03/03 18:29:27;;;;;;;;;45.50;34.00;;;;;6.07;54.35;102206.34;4923176;28;47121;-71
2023/03/03 18:31:52;;;;;;;;;41.50;35.75;;;;;6.06;53.94;102209.78;4921726;28;45355;-72
2023/03/03 18:34:17;;;;;;;;;47.00;36.00;;;;;6.03;52.13;102213.09;4938239;28;45410;-71
2023/03/03 18:36:55;;;;;;;;;46.50;42.25;;;;;6.00;55.14;102210.28;4935086;28;45149;-72
2023/03/03 18:39:40;;;;;;;;;54.75;40.50;;;;;5.97;54.00;102214.44;4920507;28;48380;-72
2023/03/03 18:42:15;;;;;;;;;43.25;34.75;;;;;5.95;53.65;102222.19;4931050;28;45267;-71
2023/03/03 18:44:41;;;;;;;;;47.75;37.25;;;;;5.69;55.11;102180.19;4934398;28;45491;-71
2023/03/03 18:47:07;;;;;;;;;45.50;38.00;;;;;5.86;52.82;102210.16;4930810;28;45439;-71
2023/03/03 18:50:04;;;;;;;;;38.75;33.50;;;;;5.87;54.36;102233.88;4920925;28;46180;-72
2023/03/03 18:52:32;;;;;;;;;43.00;37.00;;;;;5.62;53.86;102191.97;4927171;28;45292;-72
2023/03/03 18:55:09;;;;;;;;;42.00;36.50;;;;;5.74;54.46;102219.03;4920027;28;45375;-72
2023/03/03 18:57:37;;;;;;;;;41.50;37.00;;;;;5.68;55.76;102226.47;4923861;28;45347;-73
2023/03/03 19:00:40;;;;;;;;;44.50;32.25;;;;;5.72;55.79;102238.09;4940459;28;46885;-73
2023/03/03 19:03:23;;;;;;;;;51.25;37.50;;;;;5.51;53.90;102217.47;4904110;28;45329;-71
2023/03/03 19:05:52;;;;;;;;;37.75;35.50;;;;;5.64;53.71;102239.31;4934016;28;45281;-72
2023/03/03 19:08:23;;;;;;;;;44.75;34.50;;;;;5.59;55.90;102241.59;4929524;28;45434;-72
2023/03/03 19:10:57;;;;;;;;;41.50;34.75;;;;;5.58;53.28;102234.56;4922247;28;46747;-72
2023/03/03 19:13:31;;;;;;;;;44.50;38.50;;;;;5.55;55.22;102239.59;4938183;28;45484;-72
2023/03/03 19:16:02;;;;;;;;;44.50;38.75;;;;;5.48;54.47;102237.34;4941626;28;45418;-70
2023/03/03 19:18:32;;;;;;;;;38.75;33.75;;;;;5.35;56.08;102215.53;4922343;28;45681;-73
2023/03/03 19:21:18;;;;;;;;;43.50;33.25;;;;;5.43;55.03;102238.75;4924192;28;46864;-72
2023/03/03 19:23:59;;;;;;;;;47.25;39.75;;;;;5.40;56.18;102236.81;4942519;28;45358;-72
2023/03/03 19:26:24;;;;;;;;;41.25;36.00;;;;;5.42;55.35;102250.03;4937313;28;45226;-73
2023/03/03 19:29:08;;;;;;;;;47.50;37.00;;;;;5.40;56.20;102249.94;4937660;28;45224;-72
2023/03/03 19:31:42;;;;;;;;;46.75;39.00;;;;;5.37;57.40;102253.25;4938541;28;46560;-72
2023/03/03 19:34:25;;;;;;;;;53.00;40.25;;;;;5.23;56.89;102230.41;4941225;28;45445;-72